Terminal Aerodrome Forecast
Issued by NWS

Home | Current Version | Previous Version | Text Only | Print | Product List | Glossary On
Versions: 1 2 3 4 5 6 7 8 9 10 11 12 13 14 15
000
FTUS43 KEAX 182300
TAFMKC
TAF
KMKC 182320Z 1900/1924 17005KT P6SM SKC
     FM190900 19005KT P6SM VCTS BKN050CB
     FM191200 VRB04KT P6SM SCT120=

USA.gov is the U.S. government's official web portal to all federal, state and local government web resources and services.